sensor_id;sensor_type;location;lat;lon;timestamp;pressure;altitude;pressure_sealevel;temperature;humidity
21359;BME280;13506;50.852;20.632;2023-05-24T00:01:39;97804.44;;;17.66;58.81
21359;BME280;13506;50.852;20.632;2023-05-24T00:04:08;97811.25;;;17.60;59.32
21359;BME280;13506;50.852;20.632;2023-05-24T00:06:36;97808.59;;;17.60;59.32
21359;BME280;13506;50.852;20.632;2023-05-24T00:09:04;97801.66;;;17.59;59.82
21359;BME280;13506;50.852;20.632;2023-05-24T00:11:32;97802.00;;;17.56;60.02
21359;BME280;13506;50.852;20.632;2023-05-24T00:14:00;97813.56;;;17.55;60.62
21359;BME280;13506;50.852;20.632;2023-05-24T00:16:29;97798.03;;;17.52;60.99
21359;BME280;13506;50.852;20.632;2023-05-24T00:18:58;97805.47;;;17.49;61.87
21359;BME280;13506;50.852;20.632;2023-05-24T00:21:25;97806.66;;;17.46;62.04
21359;BME280;13506;50.852;20.632;2023-05-24T00:23:54;97799.03;;;17.43;62.55
21359;BME280;13506;50.852;20.632;2023-05-24T00:26:21;97801.03;;;17.41;63.45
21359;BME280;13506;50.852;20.632;2023-05-24T00:28:55;97790.63;;;17.39;64.06
21359;BME280;13506;50.852;20.632;2023-05-24T00:31:23;97786.31;;;17.38;64.31
21359;BME280;13506;50.852;20.632;2023-05-24T00:33:53;97788.16;;;17.38;65.01
21359;BME280;13506;50.852;20.632;2023-05-24T00:36:21;97779.56;;;17.36;65.17
21359;BME280;13506;50.852;20.632;2023-05-24T00:38:49;97780.88;;;17.32;65.28
21359;BME280;13506;50.852;20.632;2023-05-24T00:41:18;97775.59;;;17.32;65.21
21359;BME280;13506;50.852;20.632;2023-05-24T00:43:46;97771.31;;;17.31;65.66
21359;BME280;13506;50.852;20.632;2023-05-24T00:46:19;97775.28;;;17.27;65.72
21359;BME280;13506;50.852;20.632;2023-05-24T00:48:49;97778.09;;;17.25;66.60
21359;BME280;13506;50.852;20.632;2023-05-24T00:51:19;97775.78;;;17.22;66.65
21359;BME280;13506;50.852;20.632;2023-05-24T00:53:48;97775.09;;;17.20;67.34
21359;BME280;13506;50.852;20.632;2023-05-24T00:56:16;97776.47;;;17.16;67.69
21359;BME280;13506;50.852;20.632;2023-05-24T00:58:45;97775.97;;;17.12;67.82
21359;BME280;13506;50.852;20.632;2023-05-24T01:01:13;97774.50;;;17.10;68.30
21359;BME280;13506;50.852;20.632;2023-05-24T01:03:41;97771.47;;;17.04;68.20
21359;BME280;13506;50.852;20.632;2023-05-24T01:06:12;97780.72;;;17.00;68.63
21359;BME280;13506;50.852;20.632;2023-05-24T01:08:53;97783.06;;;16.95;68.76
21359;BME280;13506;50.852;20.632;2023-05-24T01:11:31;97787.31;;;16.88;69.01
21359;BME280;13506;50.852;20.632;2023-05-24T01:14:11;97779.91;;;16.83;69.25
21359;BME280;13506;50.852;20.632;2023-05-24T01:16:48;97783.03;;;16.79;69.52
21359;BME280;13506;50.852;20.632;2023-05-24T01:19:39;97784.34;;;16.75;69.71
21359;BME280;13506;50.852;20.632;2023-05-24T01:22:22;97787.34;;;16.72;69.80
21359;BME280;13506;50.852;20.632;2023-05-24T01:25:01;97786.84;;;16.68;70.54
21359;BME280;13506;50.852;20.632;2023-05-24T01:27:32;97792.63;;;16.63;70.86
21359;BME280;13506;50.852;20.632;2023-05-24T01:30:02;97792.09;;;16.60;71.16
21359;BME280;13506;50.852;20.632;2023-05-24T01:32:30;97795.09;;;16.57;71.18
21359;BME280;13506;50.852;20.632;2023-05-24T01:34:58;97794.56;;;16.53;71.53
21359;BME280;13506;50.852;20.632;2023-05-24T01:37:26;97792.44;;;16.49;71.91
21359;BME280;13506;50.852;20.632;2023-05-24T01:39:54;97787.44;;;16.46;72.70
21359;BME280;13506;50.852;20.632;2023-05-24T01:42:26;97799.31;;;16.41;73.34
21359;BME280;13506;50.852;20.632;2023-05-24T01:45:03;97798.84;;;16.38;73.28
21359;BME280;13506;50.852;20.632;2023-05-24T01:47:41;97793.19;;;16.33;73.67
21359;BME280;13506;50.852;20.632;2023-05-24T01:50:17;97790.09;;;16.29;74.12
21359;BME280;13506;50.852;20.632;2023-05-24T01:52:49;97801.59;;;16.28;74.64
21359;BME280;13506;50.852;20.632;2023-05-24T01:55:18;97791.22;;;16.27;74.93
21359;BME280;13506;50.852;20.632;2023-05-24T01:57:49;97800.13;;;16.26;75.50
21359;BME280;13506;50.852;20.632;2023-05-24T02:00:20;97802.91;;;16.24;75.46
21359;BME280;13506;50.852;20.632;2023-05-24T02:02:50;97814.47;;;16.23;76.21
21359;BME280;13506;50.852;20.632;2023-05-24T02:05:20;97815.75;;;16.19;77.44
21359;BME280;13506;50.852;20.632;2023-05-24T02:07:48;97810.47;;;16.19;77.37
21359;BME280;13506;50.852;20.632;2023-05-24T02:10:17;97812.59;;;16.15;77.51
21359;BME280;13506;50.852;20.632;2023-05-24T02:12:45;97806.97;;;16.10;77.83
21359;BME280;13506;50.852;20.632;2023-05-24T02:15:13;97797.41;;;16.09;77.83
21359;BME280;13506;50.852;20.632;2023-05-24T02:17:43;97808.09;;;16.08;78.46
21359;BME280;13506;50.852;20.632;2023-05-24T02:20:13;97803.81;;;16.07;78.97
21359;BME280;13506;50.852;20.632;2023-05-24T02:22:42;97804.13;;;16.03;79.01
21359;BME280;13506;50.852;20.632;2023-05-24T02:25:10;97808.75;;;16.01;79.22
21359;BME280;13506;50.852;20.632;2023-05-24T02:27:38;97795.06;;;15.98;79.56
21359;BME280;13506;50.852;20.632;2023-05-24T02:30:08;97798.66;;;15.97;79.67
21359;BME280;13506;50.852;20.632;2023-05-24T02:32:36;97798.66;;;15.97;80.03
21359;BME280;13506;50.852;20.632;2023-05-24T02:35:06;97806.91;;;15.94;80.33
21359;BME280;13506;50.852;20.632;2023-05-24T02:37:34;97798.19;;;15.93;81.07
21359;BME280;13506;50.852;20.632;2023-05-24T02:40:03;97801.94;;;15.91;82.13
21359;BME280;13506;50.852;20.632;2023-05-24T02:42:32;97811.66;;;15.90;81.81
21359;BME280;13506;50.852;20.632;2023-05-24T02:45:00;97806.06;;;15.85;81.60
21359;BME280;13506;50.852;20.632;2023-05-24T02:47:28;97811.81;;;15.89;81.30
21359;BME280;13506;50.852;20.632;2023-05-24T02:49:56;97817.94;;;15.89;81.80
21359;BME280;13506;50.852;20.632;2023-05-24T02:52:25;97812.28;;;15.84;82.57
21359;BME280;13506;50.852;20.632;2023-05-24T02:54:54;97806.72;;;15.87;82.22
21359;BME280;13506;50.852;20.632;2023-05-24T02:57:22;97816.41;;;15.87;82.13
21359;BME280;13506;50.852;20.632;2023-05-24T02:59:50;97806.88;;;15.86;82.17
21359;BME280;13506;50.852;20.632;2023-05-24T03:02:18;97814.94;;;15.84;82.55
21359;BME280;13506;50.852;20.632;2023-05-24T03:04:47;97814.94;;;15.84;82.57
21359;BME280;13506;50.852;20.632;2023-05-24T03:07:15;97814.25;;;15.82;82.52
21359;BME280;13506;50.852;20.632;2023-05-24T03:09:45;97814.13;;;15.83;82.55
21359;BME280;13506;50.852;20.632;2023-05-24T03:12:12;97820.06;;;15.86;82.84
21359;BME280;13506;50.852;20.632;2023-05-24T03:14:41;97806.19;;;15.83;82.85
21359;BME280;13506;50.852;20.632;2023-05-24T03:17:09;97818.25;;;15.86;82.63
21359;BME280;13506;50.852;20.632;2023-05-24T03:19:37;97813.78;;;15.87;82.64
21359;BME280;13506;50.852;20.632;2023-05-24T03:22:05;97825.19;;;15.87;82.83
21359;BME280;13506;50.852;20.632;2023-05-24T03:24:33;97824.72;;;15.92;82.66
21359;BME280;13506;50.852;20.632;2023-05-24T03:27:03;97825.69;;;15.91;82.48
21359;BME280;13506;50.852;20.632;2023-05-24T03:29:32;97837.22;;;15.90;83.56
21359;BME280;13506;50.852;20.632;2023-05-24T03:32:00;97833.16;;;15.95;82.92
21359;BME280;13506;50.852;20.632;2023-05-24T03:34:28;97835.44;;;15.98;83.46
21359;BME280;13506;50.852;20.632;2023-05-24T03:36:57;97832.81;;;15.98;82.82
21359;BME280;13506;50.852;20.632;2023-05-24T03:39:25;97843.38;;;15.98;83.05
21359;BME280;13506;50.852;20.632;2023-05-24T03:41:57;97847.34;;;16.02;82.38
21359;BME280;13506;50.852;20.632;2023-05-24T03:44:27;97841.91;;;16.04;82.28
21359;BME280;13506;50.852;20.632;2023-05-24T03:46:55;97846.19;;;16.05;82.35
21359;BME280;13506;50.852;20.632;2023-05-24T03:49:24;97852.97;;;16.08;82.03
21359;BME280;13506;50.852;20.632;2023-05-24T03:51:52;97839.63;;;16.09;82.04
21359;BME280;13506;50.852;20.632;2023-05-24T03:54:20;97846.88;;;16.07;82.32
21359;BME280;13506;50.852;20.632;2023-05-24T03:56:48;97851.31;;;16.07;81.91
21359;BME280;13506;50.852;20.632;2023-05-24T03:59:19;97848.34;;;16.10;82.05
21359;BME280;13506;50.852;20.632;2023-05-24T04:01:48;97855.44;;;16.09;82.11
21359;BME280;13506;50.852;20.632;2023-05-24T04:04:17;97861.09;;;16.14;81.69
21359;BME280;13506;50.852;20.632;2023-05-24T04:06:45;97856.63;;;16.15;81.16
21359;BME280;13506;50.852;20.632;2023-05-24T04:09:14;97864.56;;;16.15;80.99
21359;BME280;13506;50.852;20.632;2023-05-24T04:11:42;97857.31;;;16.17;80.75
21359;BME280;13506;50.852;20.632;2023-05-24T04:14:11;97857.69;;;16.22;80.33
21359;BME280;13506;50.852;20.632;2023-05-24T04:16:39;97872.84;;;16.20;80.70
21359;BME280;13506;50.852;20.632;2023-05-24T04:19:12;97879.91;;;16.19;79.95
21359;BME280;13506;50.852;20.632;2023-05-24T04:21:39;97874.78;;;16.18;80.22
21359;BME280;13506;50.852;20.632;2023-05-24T04:24:08;97878.41;;;16.17;80.21
21359;BME280;13506;50.852;20.632;2023-05-24T04:26:35;97880.91;;;16.18;80.22
21359;BME280;13506;50.852;20.632;2023-05-24T04:29:04;97883.19;;;16.13;80.42
21359;BME280;13506;50.852;20.632;2023-05-24T04:31:33;97888.31;;;16.15;79.88
21359;BME280;13506;50.852;20.632;2023-05-24T04:34:01;97899.84;;;16.14;80.42
21359;BME280;13506;50.852;20.632;2023-05-24T04:36:31;97892.59;;;16.16;79.79
21359;BME280;13506;50.852;20.632;2023-05-24T04:39:01;97898.97;;;16.05;82.07
21359;BME280;13506;50.852;20.632;2023-05-24T04:41:30;97895.91;;;16.18;79.92
21359;BME280;13506;50.852;20.632;2023-05-24T04:43:59;97894.94;;;16.19;79.95
21359;BME280;13506;50.852;20.632;2023-05-24T04:46:27;97905.19;;;16.22;79.66
21359;BME280;13506;50.852;20.632;2023-05-24T04:48:55;97898.38;;;16.19;80.59
21359;BME280;13506;50.852;20.632;2023-05-24T04:51:23;97902.84;;;16.19;79.41
21359;BME280;13506;50.852;20.632;2023-05-24T04:53:53;97908.19;;;16.27;79.12
21359;BME280;13506;50.852;20.632;2023-05-24T04:56:20;97911.66;;;16.28;79.38
21359;BME280;13506;50.852;20.632;2023-05-24T04:58:49;97904.06;;;16.33;78.70
21359;BME280;13506;50.852;20.632;2023-05-24T05:01:16;97903.88;;;16.26;78.51
21359;BME280;13506;50.852;20.632;2023-05-24T05:03:45;97914.16;;;16.29;78.30
21359;BME280;13506;50.852;20.632;2023-05-24T05:06:13;97911.81;;;16.26;77.66
21359;BME280;13506;50.852;20.632;2023-05-24T05:08:41;97914.44;;;16.26;77.78
21359;BME280;13506;50.852;20.632;2023-05-24T05:11:10;97916.41;;;16.24;77.59
21359;BME280;13506;50.852;20.632;2023-05-24T05:13:38;97917.75;;;16.28;77.30
21359;BME280;13506;50.852;20.632;2023-05-24T05:16:06;97926.97;;;16.24;77.05
21359;BME280;13506;50.852;20.632;2023-05-24T05:18:35;97927.34;;;16.29;77.05
21359;BME280;13506;50.852;20.632;2023-05-24T05:21:02;97930.31;;;16.34;76.95
21359;BME280;13506;50.852;20.632;2023-05-24T05:23:31;97933.16;;;16.41;76.46
21359;BME280;13506;50.852;20.632;2023-05-24T05:25:58;97932.84;;;16.44;76.33
21359;BME280;13506;50.852;20.632;2023-05-24T05:28:28;97933.34;;;16.48;76.30
21359;BME280;13506;50.852;20.632;2023-05-24T05:30:56;97935.69;;;16.51;75.68
21359;BME280;13506;50.852;20.632;2023-05-24T05:33:24;97941.16;;;16.57;75.61
21359;BME280;13506;50.852;20.632;2023-05-24T05:35:52;97943.47;;;16.60;75.40
21359;BME280;13506;50.852;20.632;2023-05-24T05:38:20;97948.63;;;16.70;74.81
21359;BME280;13506;50.852;20.632;2023-05-24T05:40:48;97943.34;;;16.70;74.62
21359;BME280;13506;50.852;20.632;2023-05-24T05:43:16;97954.25;;;16.75;74.59
21359;BME280;13506;50.852;20.632;2023-05-24T05:45:45;97956.09;;;16.83;74.32
21359;BME280;13506;50.852;20.632;2023-05-24T05:48:14;97964.19;;;16.90;74.20
21359;BME280;13506;50.852;20.632;2023-05-24T05:50:42;97960.41;;;16.92;73.74
21359;BME280;13506;50.852;20.632;2023-05-24T05:53:10;97962.41;;;17.07;73.33
21359;BME280;13506;50.852;20.632;2023-05-24T05:55:38;97967.75;;;17.15;73.75
21359;BME280;13506;50.852;20.632;2023-05-24T05:58:06;97953.56;;;17.24;73.34
21359;BME280;13506;50.852;20.632;2023-05-24T06:00:34;97964.47;;;17.29;72.91
21359;BME280;13506;50.852;20.632;2023-05-24T06:03:03;97969.44;;;17.40;72.54
21359;BME280;13506;50.852;20.632;2023-05-24T06:05:31;97972.25;;;17.47;71.97
21359;BME280;13506;50.852;20.632;2023-05-24T06:07:59;97968.78;;;17.55;71.63
21359;BME280;13506;50.852;20.632;2023-05-24T06:10:27;97964.00;;;17.58;71.53
21359;BME280;13506;50.852;20.632;2023-05-24T06:12:55;97974.09;;;17.55;71.80
21359;BME280;13506;50.852;20.632;2023-05-24T06:15:23;97978.22;;;17.49;72.05
21359;BME280;13506;50.852;20.632;2023-05-24T06:17:51;97975.25;;;17.44;72.57
21359;BME280;13506;50.852;20.632;2023-05-24T06:20:22;97971.59;;;17.45;72.72
21359;BME280;13506;50.852;20.632;2023-05-24T06:22:49;97983.50;;;17.49;72.37
21359;BME280;13506;50.852;20.632;2023-05-24T06:25:18;97993.78;;;17.60;71.73
21359;BME280;13506;50.852;20.632;2023-05-24T06:27:46;97993.41;;;17.55;72.40
21359;BME280;13506;50.852;20.632;2023-05-24T06:30:14;97995.56;;;17.60;73.38
21359;BME280;13506;50.852;20.632;2023-05-24T06:32:42;97989.31;;;17.61;73.09
21359;BME280;13506;50.852;20.632;2023-05-24T06:35:11;97998.56;;;17.65;73.20
21359;BME280;13506;50.852;20.632;2023-05-24T06:37:40;97999.41;;;17.82;72.15
21359;BME280;13506;50.852;20.632;2023-05-24T06:40:10;98007.66;;;17.79;71.75
21359;BME280;13506;50.852;20.632;2023-05-24T06:42:39;98010.94;;;17.73;71.89
21359;BME280;13506;50.852;20.632;2023-05-24T06:45:08;98015.09;;;17.67;72.77
21359;BME280;13506;50.852;20.632;2023-05-24T06:47:37;98019.53;;;17.75;73.20
21359;BME280;13506;50.852;20.632;2023-05-24T06:50:06;98030.19;;;17.99;71.38
21359;BME280;13506;50.852;20.632;2023-05-24T06:52:35;98022.38;;;18.22;71.02
21359;BME280;13506;50.852;20.632;2023-05-24T06:55:05;98025.81;;;18.39;70.59
21359;BME280;13506;50.852;20.632;2023-05-24T06:57:33;98038.69;;;18.59;70.04
21359;BME280;13506;50.852;20.632;2023-05-24T07:00:01;98035.50;;;18.80;68.92
21359;BME280;13506;50.852;20.632;2023-05-24T07:02:30;98031.31;;;18.94;68.69
21359;BME280;13506;50.852;20.632;2023-05-24T07:04:58;98043.53;;;19.03;67.89
21359;BME280;13506;50.852;20.632;2023-05-24T07:07:26;98042.97;;;19.16;66.65
21359;BME280;13506;50.852;20.632;2023-05-24T07:09:54;98049.41;;;19.21;66.21
21359;BME280;13506;50.852;20.632;2023-05-24T07:12:24;98045.91;;;19.21;66.11
21359;BME280;13506;50.852;20.632;2023-05-24T07:14:52;98049.81;;;19.33;66.01
21359;BME280;13506;50.852;20.632;2023-05-24T07:17:21;98055.66;;;19.29;66.34
21359;BME280;13506;50.852;20.632;2023-05-24T07:19:49;98057.91;;;19.40;66.40
21359;BME280;13506;50.852;20.632;2023-05-24T07:22:17;98060.22;;;19.51;65.49
21359;BME280;13506;50.852;20.632;2023-05-24T07:24:46;98067.16;;;19.52;65.15
21359;BME280;13506;50.852;20.632;2023-05-24T07:27:14;98077.44;;;19.55;64.60
21359;BME280;13506;50.852;20.632;2023-05-24T07:29:43;98063.81;;;19.50;64.41
21359;BME280;13506;50.852;20.632;2023-05-24T07:32:11;98070.13;;;19.18;65.53
21359;BME280;13506;50.852;20.632;2023-05-24T07:34:40;98077.78;;;19.13;65.64
21359;BME280;13506;50.852;20.632;2023-05-24T07:37:08;98085.59;;;19.06;66.12
21359;BME280;13506;50.852;20.632;2023-05-24T07:39:37;98086.63;;;18.97;66.46
21359;BME280;13506;50.852;20.632;2023-05-24T07:42:05;98090.44;;;19.02;66.22
21359;BME280;13506;50.852;20.632;2023-05-24T07:44:34;98075.19;;;18.96;66.43
21359;BME280;13506;50.852;20.632;2023-05-24T07:47:03;98086.09;;;19.01;66.34
21359;BME280;13506;50.852;20.632;2023-05-24T07:49:31;98096.38;;;19.13;65.16
21359;BME280;13506;50.852;20.632;2023-05-24T07:51:59;98100.81;;;19.12;65.23
21359;BME280;13506;50.852;20.632;2023-05-24T07:54:29;98099.44;;;19.24;64.88
21359;BME280;13506;50.852;20.632;2023-05-24T07:56:57;98108.72;;;19.29;64.69
21359;BME280;13506;50.852;20.632;2023-05-24T07:59:25;98104.88;;;19.31;64.74
21359;BME280;13506;50.852;20.632;2023-05-24T08:01:53;98103.16;;;19.46;64.66
21359;BME280;13506;50.852;20.632;2023-05-24T08:04:22;98099.59;;;19.62;64.63
21359;BME280;13506;50.852;20.632;2023-05-24T08:06:50;98110.09;;;19.47;63.88
21359;BME280;13506;50.852;20.632;2023-05-24T08:09:18;98123.28;;;19.33;64.95
21359;BME280;13506;50.852;20.632;2023-05-24T08:11:48;98119.63;;;19.34;64.66
21359;BME280;13506;50.852;20.632;2023-05-24T08:14:16;98119.25;;;19.53;63.76
21359;BME280;13506;50.852;20.632;2023-05-24T08:16:44;98116.84;;;19.66;63.78
21359;BME280;13506;50.852;20.632;2023-05-24T08:19:12;98125.84;;;19.57;63.95
21359;BME280;13506;50.852;20.632;2023-05-24T08:21:41;98126.69;;;19.58;63.47
21359;BME280;13506;50.852;20.632;2023-05-24T08:24:09;98126.03;;;19.56;63.59
21359;BME280;13506;50.852;20.632;2023-05-24T08:26:37;98138.03;;;19.75;63.12
21359;BME280;13506;50.852;20.632;2023-05-24T08:29:05;98133.66;;;19.82;62.63
21359;BME280;13506;50.852;20.632;2023-05-24T08:31:34;98139.34;;;19.79;62.23
21359;BME280;13506;50.852;20.632;2023-05-24T08:34:02;98135.78;;;19.86;62.00
21359;BME280;13506;50.852;20.632;2023-05-24T08:36:31;98135.50;;;20.04;61.48
21359;BME280;13506;50.852;20.632;2023-05-24T08:39:01;98128.72;;;20.02;60.99
21359;BME280;13506;50.852;20.632;2023-05-24T08:41:30;98131.88;;;19.97;61.58
21359;BME280;13506;50.852;20.632;2023-05-24T08:44:05;98146.66;;;20.00;61.86
21359;BME280;13506;50.852;20.632;2023-05-24T08:46:34;98152.44;;;20.03;61.36
21359;BME280;13506;50.852;20.632;2023-05-24T08:49:04;98147.38;;;20.17;61.18
21359;BME280;13506;50.852;20.632;2023-05-24T08:51:33;98148.31;;;20.24;60.57
21359;BME280;13506;50.852;20.632;2023-05-24T08:54:06;98147.56;;;20.38;60.44
21359;BME280;13506;50.852;20.632;2023-05-24T08:56:36;98149.91;;;20.33;60.63
21359;BME280;13506;50.852;20.632;2023-05-24T08:59:07;98153.69;;;20.39;60.45
21359;BME280;13506;50.852;20.632;2023-05-24T09:01:39;98161.50;;;20.40;60.20
21359;BME280;13506;50.852;20.632;2023-05-24T09:04:08;98153.75;;;20.31;60.99
21359;BME280;13506;50.852;20.632;2023-05-24T09:06:36;98159.50;;;20.42;60.70
21359;BME280;13506;50.852;20.632;2023-05-24T09:09:06;98164.25;;;20.47;59.93
21359;BME280;13506;50.852;20.632;2023-05-24T09:11:37;98171.34;;;20.55;59.54
21359;BME280;13506;50.852;20.632;2023-05-24T09:14:07;98167.53;;;20.72;59.18
21359;BME280;13506;50.852;20.632;2023-05-24T09:16:36;98167.00;;;20.92;58.79
21359;BME280;13506;50.852;20.632;2023-05-24T09:19:04;98161.41;;;20.86;59.42
21359;BME280;13506;50.852;20.632;2023-05-24T09:21:32;98167.00;;;20.92;59.10
21359;BME280;13506;50.852;20.632;2023-05-24T09:24:01;98167.78;;;21.15;59.08
21359;BME280;13506;50.852;20.632;2023-05-24T09:26:31;98179.22;;;21.31;57.93
21359;BME280;13506;50.852;20.632;2023-05-24T09:28:59;98176.22;;;21.34;57.83
21359;BME280;13506;50.852;20.632;2023-05-24T09:31:33;98171.19;;;21.90;55.69
21359;BME280;13506;50.852;20.632;2023-05-24T09:34:02;98165.81;;;22.26;54.37
21359;BME280;13506;50.852;20.632;2023-05-24T09:36:31;98166.28;;;22.52;53.18
21359;BME280;13506;50.852;20.632;2023-05-24T09:39:05;98175.00;;;22.95;53.04
21359;BME280;13506;50.852;20.632;2023-05-24T09:41:37;98173.56;;;23.27;52.65
21359;BME280;13506;50.852;20.632;2023-05-24T09:44:05;98174.75;;;23.18;51.75
21359;BME280;13506;50.852;20.632;2023-05-24T09:46:36;98179.25;;;23.11;51.86
21359;BME280;13506;50.852;20.632;2023-05-24T09:49:05;98181.78;;;23.19;51.56
21359;BME280;13506;50.852;20.632;2023-05-24T09:51:36;98175.75;;;23.10;52.24
21359;BME280;13506;50.852;20.632;2023-05-24T09:54:05;98185.09;;;23.28;51.84
21359;BME280;13506;50.852;20.632;2023-05-24T09:56:33;98193.09;;;23.28;51.88
21359;BME280;13506;50.852;20.632;2023-05-24T09:59:07;98189.41;;;23.29;51.89
21359;BME280;13506;50.852;20.632;2023-05-24T10:01:35;98187.72;;;23.21;51.96
21359;BME280;13506;50.852;20.632;2023-05-24T10:04:03;98187.25;;;23.11;52.35
21359;BME280;13506;50.852;20.632;2023-05-24T10:06:34;98189.75;;;22.91;53.50
21359;BME280;13506;50.852;20.632;2023-05-24T10:09:04;98187.75;;;23.00;52.67
21359;BME280;13506;50.852;20.632;2023-05-24T10:11:35;98181.97;;;22.89;52.87
21359;BME280;13506;50.852;20.632;2023-05-24T10:14:07;98191.19;;;23.15;52.11
21359;BME280;13506;50.852;20.632;2023-05-24T10:16:36;98197.47;;;23.42;51.80
21359;BME280;13506;50.852;20.632;2023-05-24T10:19:04;98195.56;;;23.71;51.24
21359;BME280;13506;50.852;20.632;2023-05-24T10:21:35;98213.13;;;23.87;50.26
21359;BME280;13506;50.852;20.632;2023-05-24T10:24:09;98200.31;;;23.76;50.68
21359;BME280;13506;50.852;20.632;2023-05-24T10:26:38;98207.97;;;23.85;50.08
21359;BME280;13506;50.852;20.632;2023-05-24T10:29:15;98215.75;;;23.80;50.50
21359;BME280;13506;50.852;20.632;2023-05-24T10:31:47;98213.50;;;23.77;50.43
21359;BME280;13506;50.852;20.632;2023-05-24T10:34:16;98220.88;;;23.75;50.67
21359;BME280;13506;50.852;20.632;2023-05-24T10:36:44;98220.69;;;23.77;49.79
21359;BME280;13506;50.852;20.632;2023-05-24T10:39:13;98224.19;;;23.77;50.06
21359;BME280;13506;50.852;20.632;2023-05-24T10:41:41;98220.41;;;23.71;50.78
21359;BME280;13506;50.852;20.632;2023-05-24T10:44:18;98221.00;;;23.60;50.93
21359;BME280;13506;50.852;20.632;2023-05-24T10:47:06;98231.97;;;23.37;52.26
21359;BME280;13506;50.852;20.632;2023-05-24T10:49:35;98235.38;;;23.24;52.71
21359;BME280;13506;50.852;20.632;2023-05-24T10:52:07;98234.25;;;23.12;53.80
21359;BME280;13506;50.852;20.632;2023-05-24T10:54:36;98233.75;;;23.02;53.24
21359;BME280;13506;50.852;20.632;2023-05-24T10:57:06;98241.56;;;22.75;54.35
21359;BME280;13506;50.852;20.632;2023-05-24T10:59:37;98239.72;;;22.76;54.02
21359;BME280;13506;50.852;20.632;2023-05-24T11:02:06;98239.97;;;22.59;55.24
21359;BME280;13506;50.852;20.632;2023-05-24T11:04:40;98243.34;;;22.32;55.22
21359;BME280;13506;50.852;20.632;2023-05-24T11:07:09;98243.94;;;22.27;54.94
21359;BME280;13506;50.852;20.632;2023-05-24T11:09:39;98233.47;;;21.74;56.46
21359;BME280;13506;50.852;20.632;2023-05-24T11:12:14;98237.50;;;21.11;58.13
21359;BME280;13506;50.852;20.632;2023-05-24T11:14:49;98242.72;;;20.81;59.03
21359;BME280;13506;50.852;20.632;2023-05-24T11:17:19;98247.06;;;20.36;60.09
21359;BME280;13506;50.852;20.632;2023-05-24T11:19:50;98254.44;;;20.17;60.83
21359;BME280;13506;50.852;20.632;2023-05-24T11:22:20;98255.56;;;19.92;62.61
21359;BME280;13506;50.852;20.632;2023-05-24T11:24:48;98251.78;;;19.86;62.60
21359;BME280;13506;50.852;20.632;2023-05-24T11:27:17;98258.31;;;20.06;61.65
21359;BME280;13506;50.852;20.632;2023-05-24T11:29:47;98277.91;;;20.05;62.55
21359;BME280;13506;50.852;20.632;2023-05-24T11:32:16;98270.84;;;19.90;63.11
21359;BME280;13506;50.852;20.632;2023-05-24T11:34:46;98262.19;;;19.96;62.93
21359;BME280;13506;50.852;20.632;2023-05-24T11:37:14;98267.16;;;19.99;63.04
21359;BME280;13506;50.852;20.632;2023-05-24T11:39:42;98267.50;;;19.96;62.40
21359;BME280;13506;50.852;20.632;2023-05-24T11:42:10;98259.09;;;19.84;62.79
21359;BME280;13506;50.852;20.632;2023-05-24T11:44:38;98261.84;;;19.59;63.42
21359;BME280;13506;50.852;20.632;2023-05-24T11:47:08;98259.88;;;19.37;64.43
21359;BME280;13506;50.852;20.632;2023-05-24T11:49:37;98258.41;;;19.34;64.68
21359;BME280;13506;50.852;20.632;2023-05-24T11:52:06;98251.41;;;19.50;64.51
21359;BME280;13506;50.852;20.632;2023-05-24T11:54:34;98250.38;;;19.59;65.01
21359;BME280;13506;50.852;20.632;2023-05-24T11:57:04;98261.78;;;19.76;63.77
21359;BME280;13506;50.852;20.632;2023-05-24T11:59:33;98268.69;;;19.93;62.58
21359;BME280;13506;50.852;20.632;2023-05-24T12:02:04;98266.69;;;19.95;62.81
21359;BME280;13506;50.852;20.632;2023-05-24T12:04:35;98258.88;;;19.94;62.67
21359;BME280;13506;50.852;20.632;2023-05-24T12:07:03;98278.47;;;20.24;61.79
21359;BME280;13506;50.852;20.632;2023-05-24T12:09:37;98267.97;;;20.39;61.59
21359;BME280;13506;50.852;20.632;2023-05-24T12:12:05;98265.09;;;20.48;62.18
21359;BME280;13506;50.852;20.632;2023-05-24T12:14:35;98273.53;;;20.21;60.34
21359;BME280;13506;50.852;20.632;2023-05-24T12:17:03;98260.53;;;20.57;60.37
21359;BME280;13506;50.852;20.632;2023-05-24T12:19:32;98262.63;;;20.85;59.40
21359;BME280;13506;50.852;20.632;2023-05-24T12:22:04;98248.69;;;21.06;59.32
21359;BME280;13506;50.852;20.632;2023-05-24T12:24:32;98253.84;;;21.22;58.50
21359;BME280;13506;50.852;20.632;2023-05-24T12:27:02;98255.50;;;21.23;58.29
21359;BME280;13506;50.852;20.632;2023-05-24T12:29:32;98251.47;;;21.42;57.30
21359;BME280;13506;50.852;20.632;2023-05-24T12:32:01;98248.53;;;21.52;57.47
21359;BME280;13506;50.852;20.632;2023-05-24T12:34:29;98242.75;;;21.34;58.66
21359;BME280;13506;50.852;20.632;2023-05-24T12:36:58;98254.22;;;21.49;58.50
21359;BME280;13506;50.852;20.632;2023-05-24T12:39:28;98259.06;;;21.31;58.70
21359;BME280;13506;50.852;20.632;2023-05-24T12:41:59;98258.88;;;21.32;58.03
21359;BME280;13506;50.852;20.632;2023-05-24T12:44:29;98225.50;;;21.44;57.66
21359;BME280;13506;50.852;20.632;2023-05-24T12:46:58;98248.16;;;21.55;57.58
21359;BME280;13506;50.852;20.632;2023-05-24T12:49:27;98262.03;;;21.36;58.08
21359;BME280;13506;50.852;20.632;2023-05-24T12:51:55;98258.53;;;21.50;57.08
21359;BME280;13506;50.852;20.632;2023-05-24T12:54:26;98263.66;;;21.37;56.87
21359;BME280;13506;50.852;20.632;2023-05-24T12:56:55;98255.25;;;21.48;56.64
21359;BME280;13506;50.852;20.632;2023-05-24T12:59:26;98256.53;;;21.37;56.61
21359;BME280;13506;50.852;20.632;2023-05-24T13:01:54;98266.50;;;21.20;56.85